Time;durP1;ratioP1;P1;durP2;ratioP2;P2;SDS_P1;SDS_P2;PMS_P1;PMS_P2;Temp;Humidity;BMP_temperature;BMP_pressure;BME280_temperature;BME280_humidity;BME280_pressure;Samples;Min_cycle;Max_cycle;Signal;HPM_P1;HPM_P2
2021/12/11 00:01:42;;;;;;;14.25;10.13;;;;;;;;;;4994971;28;20196;-48
2021/12/11 00:04:13;;;;;;;17.80;10.57;;;;;;;;;;4995195;28;20252;-48
2021/12/11 00:06:40;;;;;;;19.85;11.10;;;;;;;;;;4995061;28;20192;-49
2021/12/11 00:09:15;;;;;;;14.05;9.90;;;;;;;;;;4995181;28;20213;-48
2021/12/11 00:11:42;;;;;;;21.83;11.98;;;;;;;;;;4994627;28;20179;-48
2021/12/11 00:14:09;;;;;;;12.88;9.15;;;;;;;;;;4994966;28;20177;-48
2021/12/11 00:16:36;;;;;;;17.20;11.25;;;;;;;;;;4994916;28;20200;-48
2021/12/11 00:19:06;;;;;;;21.73;12.10;;;;;;;;;;4994961;28;20292;-48
2021/12/11 00:21:32;;;;;;;16.42;10.98;;;;;;;;;;4994784;28;20169;-48
2021/12/11 00:24:08;;;;;;;21.02;11.18;;;;;;;;;;4994843;28;20249;-50
2021/12/11 00:26:42;;;;;;;15.90;10.73;;;;;;;;;;4994648;28;20228;-48
2021/12/11 00:29:09;;;;;;;17.73;10.95;;;;;;;;;;4994688;28;20263;-48
2021/12/11 00:31:36;;;;;;;13.25;10.45;;;;;;;;;;4994325;28;20169;-48
2021/12/11 00:34:03;;;;;;;13.68;9.63;;;;;;;;;;4994699;28;20239;-48
2021/12/11 00:36:33;;;;;;;15.20;10.65;;;;;;;;;;4994566;28;20193;-48
2021/12/11 00:39:07;;;;;;;19.85;11.65;;;;;;;;;;4994540;28;20712;-48
2021/12/11 00:41:34;;;;;;;17.73;11.68;;;;;;;;;;4994192;28;20248;-48
2021/12/11 00:44:01;;;;;;;14.68;10.70;;;;;;;;;;4994466;28;20161;-49
2021/12/11 00:46:28;;;;;;;15.32;10.55;;;;;;;;;;4994419;28;20678;-48
2021/12/11 00:48:54;;;;;;;13.75;10.35;;;;;;;;;;4994406;28;20173;-49
2021/12/11 00:51:22;;;;;;;14.95;10.00;;;;;;;;;;4993967;28;20181;-49
2021/12/11 00:53:50;;;;;;;25.17;11.02;;;;;;;;;;4994491;28;20181;-49
2021/12/11 00:56:18;;;;;;;16.42;11.82;;;;;;;;;;4994253;28;20208;-49
2021/12/11 00:58:45;;;;;;;15.02;10.15;;;;;;;;;;4994151;28;20212;-48
2021/12/11 01:01:16;;;;;;;16.50;11.73;;;;;;;;;;4993875;28;20543;-48
2021/12/11 01:03:45;;;;;;;17.80;10.40;;;;;;;;;;4994027;28;20173;-48
2021/12/11 01:06:17;;;;;;;16.73;10.90;;;;;;;;;;4993960;28;20734;-49
2021/12/11 01:08:47;;;;;;;15.80;11.73;;;;;;;;;;4993991;28;20175;-48
2021/12/11 01:11:22;;;;;;;18.48;11.93;;;;;;;;;;4993620;28;20175;-49
2021/12/11 01:13:50;;;;;;;21.48;12.05;;;;;;;;;;4993888;28;20183;-49
2021/12/11 01:16:16;;;;;;;25.42;12.85;;;;;;;;;;4993670;28;20185;-48
2021/12/11 01:18:44;;;;;;;24.65;11.98;;;;;;;;;;4993829;28;20717;-49
2021/12/11 01:24:10;;;;;;;17.90;11.05;;;;;;;;;;4993728;28;20195;-48
2021/12/11 01:26:38;;;;;;;18.38;11.82;;;;;;;;;;4993489;28;20680;-48
2021/12/11 01:29:04;;;;;;;16.70;12.60;;;;;;;;;;4993609;28;20186;-48
2021/12/11 01:31:30;;;;;;;21.05;12.13;;;;;;;;;;4993321;28;20165;-48
2021/12/11 01:33:56;;;;;;;18.80;11.75;;;;;;;;;;4993523;28;20173;-49
2021/12/11 01:36:23;;;;;;;18.02;9.80;;;;;;;;;;4993471;28;20576;-49
2021/12/11 01:38:53;;;;;;;20.73;10.73;;;;;;;;;;4993322;28;20193;-48
2021/12/11 01:41:20;;;;;;;21.40;10.90;;;;;;;;;;4993313;28;20525;-49
2021/12/11 01:43:48;;;;;;;18.65;11.00;;;;;;;;;;4992797;28;20169;-48
2021/12/11 01:46:14;;;;;;;24.52;13.07;;;;;;;;;;4993243;28;20661;-49
2021/12/11 01:48:42;;;;;;;19.55;11.68;;;;;;;;;;4993335;28;20256;-48
2021/12/11 01:51:11;;;;;;;26.73;12.65;;;;;;;;;;4992901;28;20542;-49
2021/12/11 01:53:40;;;;;;;22.55;12.00;;;;;;;;;;4993136;28;20601;-48
2021/12/11 01:56:22;;;;;;;18.98;11.25;;;;;;;;;;4992907;28;20589;-49
2021/12/11 01:58:56;;;;;;;22.90;12.80;;;;;;;;;;4993055;28;20204;-48
2021/12/11 02:01:29;;;;;;;21.00;13.25;;;;;;;;;;4992560;28;20557;-48
2021/12/11 02:03:55;;;;;;;16.83;11.52;;;;;;;;;;4992383;28;20592;-49
2021/12/11 02:06:26;;;;;;;20.38;11.05;;;;;;;;;;4992268;28;20259;-48
2021/12/11 02:08:52;;;;;;;20.17;11.38;;;;;;;;;;4991854;28;20169;-48
2021/12/11 02:11:21;;;;;;;17.50;12.75;;;;;;;;;;4992578;28;20268;-47
2021/12/11 02:13:51;;;;;;;20.27;12.60;;;;;;;;;;4992826;28;20248;-48
2021/12/11 02:16:43;;;;;;;18.50;11.68;;;;;;;;;;4992789;28;20212;-47
2021/12/11 02:19:11;;;;;;;18.70;12.32;;;;;;;;;;4992690;28;20276;-48
2021/12/11 02:21:57;;;;;;;15.23;11.15;;;;;;;;;;4992481;28;20238;-48
2021/12/11 02:24:25;;;;;;;23.98;11.70;;;;;;;;;;4992704;28;20606;-48
2021/12/11 02:26:52;;;;;;;23.35;13.18;;;;;;;;;;4992638;28;20181;-49
2021/12/11 02:29:24;;;;;;;15.30;11.25;;;;;;;;;;4992523;28;20172;-47
2021/12/11 02:32:11;;;;;;;20.55;12.25;;;;;;;;;;4992533;28;20173;-48
2021/12/11 02:34:43;;;;;;;18.90;11.55;;;;;;;;;;4992633;28;20184;-48
2021/12/11 02:37:23;;;;;;;15.95;11.15;;;;;;;;;;4992489;28;20264;-48
2021/12/11 02:39:49;;;;;;;21.77;12.10;;;;;;;;;;4992313;28;20207;-49
2021/12/11 02:42:15;;;;;;;19.70;12.17;;;;;;;;;;4992428;28;20169;-48
2021/12/11 02:44:47;;;;;;;27.07;12.83;;;;;;;;;;4992649;28;20404;-49
2021/12/11 02:47:15;;;;;;;21.65;13.70;;;;;;;;;;4992708;28;20427;-48
2021/12/11 02:49:47;;;;;;;21.20;12.77;;;;;;;;;;4992390;28;20604;-48
2021/12/11 02:52:19;;;;;;;19.38;12.23;;;;;;;;;;4992181;28;20256;-48
2021/12/11 02:54:58;;;;;;;21.05;13.23;;;;;;;;;;4992389;28;20183;-49
2021/12/11 02:57:44;;;;;;;25.70;11.32;;;;;;;;;;4995191;28;20239;-48
2021/12/11 03:00:13;;;;;;;21.48;12.57;;;;;;;;;;4995879;28;20287;-48
2021/12/11 03:02:45;;;;;;;17.17;12.40;;;;;;;;;;4996214;28;20165;-48
2021/12/11 03:05:15;;;;;;;20.17;11.70;;;;;;;;;;4996305;28;20165;-48
2021/12/11 03:07:49;;;;;;;20.42;12.43;;;;;;;;;;4996195;28;20727;-47
2021/12/11 03:10:21;;;;;;;19.50;13.95;;;;;;;;;;4995946;28;20288;-49
2021/12/11 03:12:47;;;;;;;20.80;12.82;;;;;;;;;;4996239;28;20708;-48
2021/12/11 03:15:14;;;;;;;26.80;14.55;;;;;;;;;;4996034;28;20173;-48
2021/12/11 03:17:40;;;;;;;24.85;13.75;;;;;;;;;;4996208;28;20238;-48
2021/12/11 03:20:09;;;;;;;20.98;13.10;;;;;;;;;;4995652;28;20199;-48
2021/12/11 03:22:35;;;;;;;21.40;13.45;;;;;;;;;;4995932;28;20166;-48
2021/12/11 03:25:03;;;;;;;26.30;14.48;;;;;;;;;;4995959;28;20645;-48
2021/12/11 03:27:29;;;;;;;20.58;14.00;;;;;;;;;;4995697;28;20189;-49
2021/12/11 03:29:55;;;;;;;25.13;14.45;;;;;;;;;;4995578;28;20177;-47
2021/12/11 03:32:22;;;;;;;24.33;12.87;;;;;;;;;;4996024;28;20175;-48
2021/12/11 03:34:49;;;;;;;24.98;12.93;;;;;;;;;;4995790;28;20408;-48
2021/12/11 03:37:17;;;;;;;24.70;13.48;;;;;;;;;;4998084;28;20199;-47
2021/12/11 03:39:45;;;;;;;19.98;13.20;;;;;;;;;;4999278;28;20197;-48
2021/12/11 03:42:13;;;;;;;29.48;13.35;;;;;;;;;;4999489;28;20697;-49
2021/12/11 03:44:40;;;;;;;27.92;14.30;;;;;;;;;;4998868;28;20169;-49
2021/12/11 03:47:08;;;;;;;23.30;13.75;;;;;;;;;;4997853;28;20664;-48
2021/12/11 03:49:35;;;;;;;29.83;15.63;;;;;;;;;;4998909;28;20760;-49
2021/12/11 03:52:01;;;;;;;23.27;13.98;;;;;;;;;;4998973;28;20633;-48
2021/12/11 03:54:29;;;;;;;26.67;12.68;;;;;;;;;;4999166;28;20576;-48
2021/12/11 03:56:57;;;;;;;27.27;14.20;;;;;;;;;;4998247;28;20226;-48
2021/12/11 03:59:23;;;;;;;21.38;13.85;;;;;;;;;;4998695;28;20204;-47
2021/12/11 04:01:51;;;;;;;22.45;14.27;;;;;;;;;;4998643;28;20197;-48
2021/12/11 04:04:21;;;;;;;27.48;15.00;;;;;;;;;;4997329;28;20273;-48
2021/12/11 04:06:47;;;;;;;34.95;13.85;;;;;;;;;;4997945;28;20264;-48
2021/12/11 04:09:14;;;;;;;31.27;15.20;;;;;;;;;;4998073;28;20224;-48
2021/12/11 04:11:41;;;;;;;24.40;12.90;;;;;;;;;;4997256;28;20185;-47
2021/12/11 04:14:12;;;;;;;33.25;15.55;;;;;;;;;;4997772;28;20173;-48
2021/12/11 04:16:38;;;;;;;27.35;13.77;;;;;;;;;;4997847;28;20224;-48
2021/12/11 04:19:06;;;;;;;28.15;14.20;;;;;;;;;;4997045;28;20220;-47
2021/12/11 04:21:32;;;;;;;31.83;15.45;;;;;;;;;;4997332;28;20200;-49
2021/12/11 04:23:58;;;;;;;27.80;15.07;;;;;;;;;;4996457;28;20177;-47
2021/12/11 04:26:24;;;;;;;32.90;15.40;;;;;;;;;;4996881;28;20181;-47
2021/12/11 04:28:50;;;;;;;27.75;15.13;;;;;;;;;;4996718;28;20681;-49
2021/12/11 04:31:19;;;;;;;37.97;15.03;;;;;;;;;;4996619;28;20165;-48
2021/12/11 04:33:47;;;;;;;31.35;15.30;;;;;;;;;;4996738;28;20409;-48
2021/12/11 04:36:16;;;;;;;22.67;13.02;;;;;;;;;;4995949;28;20181;-48
2021/12/11 04:38:42;;;;;;;23.80;13.68;;;;;;;;;;4996402;28;20609;-47
2021/12/11 04:41:10;;;;;;;24.50;14.68;;;;;;;;;;4996026;28;20297;-48
2021/12/11 04:43:36;;;;;;;26.42;15.90;;;;;;;;;;4996109;28;20165;-47
2021/12/11 04:46:07;;;;;;;37.75;16.35;;;;;;;;;;4995715;28;20648;-48
2021/12/11 04:48:43;;;;;;;24.95;12.98;;;;;;;;;;4995885;28;20169;-48
2021/12/11 04:51:20;;;;;;;30.50;14.55;;;;;;;;;;4995681;28;20508;-48
2021/12/11 04:56:40;;;;;;;27.90;15.35;;;;;;;;;;4995766;28;20259;-48
2021/12/11 04:59:41;;;;;;;29.58;15.35;;;;;;;;;;4995565;28;20239;-49
2021/12/11 05:09:38;;;;;;;30.65;16.30;;;;;;;;;;4994903;28;20184;-47
2021/12/11 05:12:27;;;;;;;34.28;18.27;;;;;;;;;;4994843;28;20592;-48
2021/12/11 05:14:54;;;;;;;36.00;16.75;;;;;;;;;;4995329;28;20180;-48
2021/12/11 05:17:20;;;;;;;39.75;17.92;;;;;;;;;;4994825;28;20189;-47
2021/12/11 05:19:47;;;;;;;42.75;18.83;;;;;;;;;;4993675;28;20657;-48
2021/12/11 05:22:13;;;;;;;38.03;21.27;;;;;;;;;;4995002;28;20180;-48
2021/12/11 05:24:41;;;;;;;31.88;16.80;;;;;;;;;;4994753;28;20165;-48
2021/12/11 05:27:08;;;;;;;36.97;17.45;;;;;;;;;;4994935;28;20189;-48
2021/12/11 05:29:34;;;;;;;45.35;19.38;;;;;;;;;;4994554;28;20200;-48
2021/12/11 05:32:00;;;;;;;38.55;16.58;;;;;;;;;;4994943;28;20169;-48
2021/12/11 05:34:26;;;;;;;41.22;19.70;;;;;;;;;;4994448;28;20169;-48
2021/12/11 05:36:52;;;;;;;32.67;15.48;;;;;;;;;;4994288;28;20192;-48
2021/12/11 05:39:19;;;;;;;31.92;17.67;;;;;;;;;;4994375;28;20256;-48
2021/12/11 05:41:47;;;;;;;44.00;17.67;;;;;;;;;;4994320;28;20196;-47
2021/12/11 05:44:15;;;;;;;41.35;17.73;;;;;;;;;;4994638;28;20212;-48
2021/12/11 05:46:41;;;;;;;46.63;19.50;;;;;;;;;;4994429;28;20203;-48
2021/12/11 05:49:08;;;;;;;33.80;18.00;;;;;;;;;;4994574;28;20244;-48
2021/12/11 05:51:38;;;;;;;41.60;19.75;;;;;;;;;;4994317;28;20233;-48
2021/12/11 05:54:06;;;;;;;47.28;19.67;;;;;;;;;;4994658;28;20165;-47
2021/12/11 05:56:35;;;;;;;45.38;19.90;;;;;;;;;;4994062;28;20209;-47
2021/12/11 05:59:03;;;;;;;45.33;21.38;;;;;;;;;;4994379;28;20188;-48
2021/12/11 06:01:30;;;;;;;41.67;20.23;;;;;;;;;;4994092;28;20648;-47
2021/12/11 06:03:57;;;;;;;51.35;21.52;;;;;;;;;;4994081;28;20192;-47
2021/12/11 06:06:23;;;;;;;50.88;22.27;;;;;;;;;;4994070;28;20682;-48
2021/12/11 06:08:49;;;;;;;58.05;20.70;;;;;;;;;;4993963;28;20169;-47
2021/12/11 06:11:17;;;;;;;48.05;19.05;;;;;;;;;;4993929;28;20247;-47
2021/12/11 06:13:43;;;;;;;47.80;24.02;;;;;;;;;;4993977;28;20172;-48
2021/12/11 06:16:09;;;;;;;50.92;22.08;;;;;;;;;;4994232;28;20189;-47
2021/12/11 06:18:36;;;;;;;66.15;21.30;;;;;;;;;;4993714;28;20247;-47
2021/12/11 06:21:02;;;;;;;66.07;23.20;;;;;;;;;;4993768;28;20660;-47
2021/12/11 06:23:28;;;;;;;58.33;23.17;;;;;;;;;;4993768;28;20641;-48
2021/12/11 06:25:55;;;;;;;57.95;22.38;;;;;;;;;;4993354;28;20161;-48
2021/12/11 06:28:22;;;;;;;58.22;22.60;;;;;;;;;;4994198;28;20165;-48
2021/12/11 06:30:48;;;;;;;58.13;22.95;;;;;;;;;;4992083;28;20196;-48
2021/12/11 06:33:14;;;;;;;53.80;21.27;;;;;;;;;;4993811;28;20569;-48
2021/12/11 06:35:48;;;;;;;75.50;23.52;;;;;;;;;;4993688;28;20161;-47
2021/12/11 06:38:16;;;;;;;56.33;23.80;;;;;;;;;;4993801;28;20180;-48
2021/12/11 06:40:43;;;;;;;54.10;22.60;;;;;;;;;;4993556;28;20172;-48
2021/12/11 06:43:09;;;;;;;70.45;23.10;;;;;;;;;;4993934;28;20176;-49
2021/12/11 06:45:37;;;;;;;59.30;21.48;;;;;;;;;;4994536;28;20200;-48
2021/12/11 06:48:03;;;;;;;72.28;26.15;;;;;;;;;;4993938;28;20185;-48
2021/12/11 06:50:29;;;;;;;62.72;21.60;;;;;;;;;;4993588;28;20204;-48
2021/12/11 06:52:55;;;;;;;69.53;24.40;;;;;;;;;;4994001;28;20169;-47
2021/12/11 06:55:22;;;;;;;64.60;24.83;;;;;;;;;;4994206;28;20405;-48
2021/12/11 06:57:48;;;;;;;67.03;25.48;;;;;;;;;;4994088;28;20209;-47
2021/12/11 07:00:17;;;;;;;82.13;29.30;;;;;;;;;;4993631;28;20196;-48
2021/12/11 07:02:43;;;;;;;82.20;28.73;;;;;;;;;;4994611;28;20176;-47
2021/12/11 07:05:09;;;;;;;67.90;27.65;;;;;;;;;;4994001;28;20651;-47
2021/12/11 07:07:36;;;;;;;71.38;26.00;;;;;;;;;;4994481;28;20226;-48
2021/12/11 07:10:05;;;;;;;79.93;27.02;;;;;;;;;;4995077;28;20656;-48
2021/12/11 07:12:31;;;;;;;84.75;28.75;;;;;;;;;;4994211;28;20197;-47
2021/12/11 07:14:57;;;;;;;74.28;25.55;;;;;;;;;;4993927;28;20704;-48
2021/12/11 07:17:23;;;;;;;84.63;27.38;;;;;;;;;;4993597;28;20212;-48
2021/12/11 07:19:50;;;;;;;89.22;29.58;;;;;;;;;;4993995;28;20259;-48
2021/12/11 07:22:16;;;;;;;76.97;29.40;;;;;;;;;;4994485;28;20162;-47
2021/12/11 07:24:49;;;;;;;71.35;27.02;;;;;;;;;;4995155;28;20173;-48
2021/12/11 07:27:17;;;;;;;68.30;26.33;;;;;;;;;;4994330;28;20263;-48
2021/12/11 07:29:43;;;;;;;70.70;25.67;;;;;;;;;;4993798;28;20268;-48
2021/12/11 07:32:11;;;;;;;84.05;26.95;;;;;;;;;;4994021;28;20201;-48
2021/12/11 07:34:37;;;;;;;69.85;26.75;;;;;;;;;;4993983;28;20720;-47
2021/12/11 07:37:04;;;;;;;82.07;25.30;;;;;;;;;;4994578;28;20552;-49
2021/12/11 07:39:30;;;;;;;88.10;27.23;;;;;;;;;;4994727;28;20196;-48
2021/12/11 07:41:56;;;;;;;68.60;29.25;;;;;;;;;;4995174;28;20180;-48
2021/12/11 07:44:23;;;;;;;76.72;24.83;;;;;;;;;;4998215;28;20533;-48
2021/12/11 07:46:50;;;;;;;60.90;21.42;;;;;;;;;;4997304;28;20192;-48
2021/12/11 07:49:16;;;;;;;79.57;28.50;;;;;;;;;;4996435;28;20180;-49
2021/12/11 07:51:42;;;;;;;76.30;25.25;;;;;;;;;;4996488;28;20196;-48
2021/12/11 07:54:09;;;;;;;86.72;28.80;;;;;;;;;;4996388;28;20169;-48
2021/12/11 07:56:36;;;;;;;71.47;23.70;;;;;;;;;;4996888;28;20224;-48
2021/12/11 07:59:03;;;;;;;94.13;30.13;;;;;;;;;;4996842;28;20635;-49
2021/12/11 08:01:30;;;;;;;49.42;18.55;;;;;;;;;;4996644;28;20228;-48
2021/12/11 08:03:59;;;;;;;73.72;27.00;;;;;;;;;;4996502;28;20172;-47
2021/12/11 08:06:25;;;;;;;72.78;24.00;;;;;;;;;;4997564;28;20181;-48
2021/12/11 08:08:52;;;;;;;74.65;25.48;;;;;;;;;;4997626;28;20675;-48
2021/12/11 08:11:19;;;;;;;72.20;24.75;;;;;;;;;;4997159;28;20189;-48
2021/12/11 08:13:46;;;;;;;84.45;26.10;;;;;;;;;;4996846;28;20539;-46
2021/12/11 08:16:13;;;;;;;84.57;26.50;;;;;;;;;;4997477;28;20580;-49
2021/12/11 08:18:39;;;;;;;76.68;24.33;;;;;;;;;;4996944;28;20200;-48
2021/12/11 08:21:05;;;;;;;72.88;26.67;;;;;;;;;;4997060;28;20177;-48
2021/12/11 08:23:31;;;;;;;87.50;26.58;;;;;;;;;;4998855;28;20169;-49
2021/12/11 08:25:58;;;;;;;66.93;25.33;;;;;;;;;;4998935;28;20195;-48
2021/12/11 08:28:26;;;;;;;72.35;24.90;;;;;;;;;;4999161;28;20892;-48
2021/12/11 08:30:52;;;;;;;81.47;26.23;;;;;;;;;;4999699;28;20211;-48
2021/12/11 08:33:19;;;;;;;81.32;26.58;;;;;;;;;;5000538;28;20175;-48
2021/12/11 08:35:45;;;;;;;81.88;26.33;;;;;;;;;;4999906;28;20173;-48
2021/12/11 08:38:11;;;;;;;90.47;27.90;;;;;;;;;;5000148;28;20599;-49
2021/12/11 08:40:40;;;;;;;74.30;27.27;;;;;;;;;;5000038;28;20177;-48
2021/12/11 08:43:07;;;;;;;79.70;26.02;;;;;;;;;;4999077;28;20176;-48
2021/12/11 08:45:45;;;;;;;64.07;23.98;;;;;;;;;;4998569;28;20173;-48
2021/12/11 08:48:14;;;;;;;74.30;25.83;;;;;;;;;;4999504;28;20506;-49
2021/12/11 08:50:41;;;;;;;73.30;25.02;;;;;;;;;;4999336;28;20165;-50
2021/12/11 08:53:07;;;;;;;82.00;28.50;;;;;;;;;;4999779;28;20169;-48
2021/12/11 08:55:36;;;;;;;69.90;27.95;;;;;;;;;;4999380;28;20199;-48
2021/12/11 08:58:02;;;;;;;87.30;27.77;;;;;;;;;;4999275;28;20203;-47
2021/12/11 09:00:38;;;;;;;66.05;26.90;;;;;;;;;;4999343;28;20201;-48
2021/12/11 09:03:27;;;;;;;64.70;24.50;;;;;;;;;;4999924;28;20161;-49
2021/12/11 09:05:56;;;;;;;62.50;26.70;;;;;;;;;;4996608;28;20209;-48
2021/12/11 09:08:24;;;;;;;74.15;25.13;;;;;;;;;;4999125;28;20165;-48
2021/12/11 09:11:10;;;;;;;81.57;29.98;;;;;;;;;;4999278;28;20184;-49
2021/12/11 09:13:46;;;;;;;73.07;27.25;;;;;;;;;;4999190;28;20181;-47
2021/12/11 09:16:12;;;;;;;62.97;25.85;;;;;;;;;;4999523;28;20184;-48
2021/12/11 09:18:52;;;;;;;72.15;25.88;;;;;;;;;;4999474;28;20686;-48
2021/12/11 09:21:27;;;;;;;61.25;24.70;;;;;;;;;;4999766;28;20169;-48
2021/12/11 09:24:02;;;;;;;71.45;28.48;;;;;;;;;;4997645;28;20173;-49
2021/12/11 09:26:30;;;;;;;76.15;29.00;;;;;;;;;;4998395;28;20232;-49
2021/12/11 09:28:59;;;;;;;68.47;28.33;;;;;;;;;;4998604;28;20172;-48
2021/12/11 09:31:45;;;;;;;73.75;25.83;;;;;;;;;;4997786;28;20181;-49
2021/12/11 09:34:18;;;;;;;80.57;28.50;;;;;;;;;;4998572;28;20663;-48
2021/12/11 09:36:47;;;;;;;64.50;28.00;;;;;;;;;;4997836;28;20192;-47
2021/12/11 09:39:24;;;;;;;67.47;25.95;;;;;;;;;;4993693;28;20557;-47
2021/12/11 09:41:50;;;;;;;66.57;27.40;;;;;;;;;;4993350;28;20708;-48
2021/12/11 09:44:19;;;;;;;67.27;29.50;;;;;;;;;;4993532;28;20169;-47
2021/12/11 09:46:47;;;;;;;69.22;26.83;;;;;;;;;;4993366;28;20447;-48
2021/12/11 09:49:28;;;;;;;66.55;26.88;;;;;;;;;;4993803;28;20173;-47
2021/12/11 09:52:02;;;;;;;69.43;27.73;;;;;;;;;;4993334;28;20211;-48
2021/12/11 09:54:29;;;;;;;71.20;25.40;;;;;;;;;;4993725;28;20648;-47
2021/12/11 09:56:57;;;;;;;70.22;28.77;;;;;;;;;;4993712;28;20209;-47
2021/12/11 09:59:24;;;;;;;85.10;28.40;;;;;;;;;;4993542;28;20197;-48
2021/12/11 10:01:53;;;;;;;68.97;27.58;;;;;;;;;;4993580;28;20165;-48
2021/12/11 10:04:28;;;;;;;53.88;23.80;;;;;;;;;;4993267;28;20640;-48
2021/12/11 10:09:26;;;;;;;61.55;25.85;;;;;;;;;;4993456;28;20233;-47
2021/12/11 10:11:54;;;;;;;63.15;24.60;;;;;;;;;;4992924;28;20200;-47
2021/12/11 10:14:22;;;;;;;62.45;24.90;;;;;;;;;;4993287;28;20173;-48
2021/12/11 10:16:50;;;;;;;57.67;25.13;;;;;;;;;;4993418;28;20193;-47
2021/12/11 10:19:17;;;;;;;61.88;25.33;;;;;;;;;;4993352;28;20195;-47
2021/12/11 10:21:47;;;;;;;64.13;23.80;;;;;;;;;;4993045;28;20169;-48
2021/12/11 10:24:16;;;;;;;72.07;24.60;;;;;;;;;;4993142;28;20191;-51
2021/12/11 10:26:42;;;;;;;60.67;25.70;;;;;;;;;;4990562;28;20181;-48
2021/12/11 10:29:10;;;;;;;65.25;26.58;;;;;;;;;;4988127;28;20274;-47
2021/12/11 10:31:38;;;;;;;58.92;24.77;;;;;;;;;;4991564;28;20641;-49
2021/12/11 10:34:06;;;;;;;69.43;26.02;;;;;;;;;;4992709;28;20177;-48
2021/12/11 10:36:35;;;;;;;67.30;24.80;;;;;;;;;;4992906;28;20199;-47
2021/12/11 10:39:02;;;;;;;64.47;26.35;;;;;;;;;;4992688;28;20216;-48
2021/12/11 10:41:28;;;;;;;60.25;25.92;;;;;;;;;;4992216;28;20171;-47
2021/12/11 10:44:00;;;;;;;58.75;22.65;;;;;;;;;;4992692;28;20172;-47
2021/12/11 10:46:29;;;;;;;62.83;24.60;;;;;;;;;;4992559;28;20189;-48
2021/12/11 10:48:55;;;;;;;65.45;23.63;;;;;;;;;;4992735;28;20236;-48
2021/12/11 10:51:26;;;;;;;67.28;24.63;;;;;;;;;;4992177;28;20256;-49
2021/12/11 10:53:54;;;;;;;56.53;22.60;;;;;;;;;;4992436;28;20188;-48
2021/12/11 10:56:21;;;;;;;51.83;22.05;;;;;;;;;;4992403;28;20204;-48
2021/12/11 10:59:10;;;;;;;56.78;23.48;;;;;;;;;;4991689;28;20223;-49
2021/12/11 11:01:45;;;;;;;70.95;25.83;;;;;;;;;;4989552;28;20192;-47
2021/12/11 11:04:17;;;;;;;49.15;21.85;;;;;;;;;;4992682;28;20770;-48
2021/12/11 11:06:45;;;;;;;54.42;20.35;;;;;;;;;;4992576;28;20239;-47
2021/12/11 11:09:11;;;;;;;52.15;21.27;;;;;;;;;;4992396;28;20161;-47
2021/12/11 11:11:38;;;;;;;57.15;20.30;;;;;;;;;;4992186;28;20180;-47
2021/12/11 11:14:06;;;;;;;42.97;19.90;;;;;;;;;;5005253;28;20176;-48
2021/12/11 11:17:06;;;;;;;43.03;19.40;;;;;;;;;;5011999;28;20579;-47
2021/12/11 11:19:34;;;;;;;52.90;21.88;;;;;;;;;;5015731;28;20203;-48
2021/12/11 11:22:01;;;;;;;50.65;20.60;;;;;;;;;;5015638;28;20196;-47
2021/12/11 11:24:30;;;;;;;45.90;18.92;;;;;;;;;;5015838;28;20638;-47
2021/12/11 11:26:56;;;;;;;42.75;20.88;;;;;;;;;;5015542;28;20192;-47
2021/12/11 11:29:23;;;;;;;40.55;19.30;;;;;;;;;;5015490;28;20199;-48
2021/12/11 11:31:51;;;;;;;42.88;19.40;;;;;;;;;;5015293;28;20174;-48
2021/12/11 11:34:19;;;;;;;42.30;19.63;;;;;;;;;;5015684;28;20173;-47
2021/12/11 11:36:46;;;;;;;48.92;21.25;;;;;;;;;;5015293;28;20188;-47
2021/12/11 11:39:13;;;;;;;44.90;19.13;;;;;;;;;;5015313;28;20196;-47
2021/12/11 11:41:41;;;;;;;51.17;20.48;;;;;;;;;;5014685;28;20641;-47
2021/12/11 11:44:08;;;;;;;62.75;20.52;;;;;;;;;;5015121;28;20620;-47
2021/12/11 11:46:35;;;;;;;40.17;17.88;;;;;;;;;;5015373;28;20203;-48
2021/12/11 11:49:02;;;;;;;40.40;19.33;;;;;;;;;;5015350;28;20176;-47
2021/12/11 11:51:30;;;;;;;43.78;19.80;;;;;;;;;;5015118;28;20174;-47
2021/12/11 11:53:57;;;;;;;35.88;17.35;;;;;;;;;;5014753;28;20168;-47
2021/12/11 11:56:25;;;;;;;46.03;18.83;;;;;;;;;;5014272;28;20274;-47
2021/12/11 11:58:51;;;;;;;39.13;18.70;;;;;;;;;;5014198;28;20499;-47
2021/12/11 12:01:23;;;;;;;41.38;18.58;;;;;;;;;;5014365;28;20199;-48
2021/12/11 12:03:49;;;;;;;43.65;17.92;;;;;;;;;;5014325;28;20168;-47
2021/12/11 12:06:22;;;;;;;37.55;17.67;;;;;;;;;;5014800;28;20536;-48
2021/12/11 12:08:48;;;;;;;44.70;18.15;;;;;;;;;;5014061;28;20267;-47
2021/12/11 12:11:15;;;;;;;45.65;18.20;;;;;;;;;;5013926;28;20207;-47
2021/12/11 12:13:41;;;;;;;43.58;18.73;;;;;;;;;;5014473;28;20182;-47
2021/12/11 12:16:09;;;;;;;53.30;19.80;;;;;;;;;;5014033;28;20191;-47
2021/12/11 12:18:35;;;;;;;43.38;18.70;;;;;;;;;;5014214;28;20415;-48
2021/12/11 12:21:03;;;;;;;40.30;19.55;;;;;;;;;;5014049;28;20169;-47
2021/12/11 12:23:31;;;;;;;38.22;17.48;;;;;;;;;;5014228;28;20160;-48
2021/12/11 12:26:01;;;;;;;41.90;18.00;;;;;;;;;;5013979;28;20168;-48
2021/12/11 12:28:28;;;;;;;38.72;19.33;;;;;;;;;;5013895;28;20641;-48
2021/12/11 12:30:56;;;;;;;39.40;19.00;;;;;;;;;;5013555;28;20199;-48
2021/12/11 12:33:22;;;;;;;40.88;19.95;;;;;;;;;;5014115;28;20169;-47
2021/12/11 12:35:49;;;;;;;48.25;21.50;;;;;;;;;;5013684;28;20172;-48
2021/12/11 12:38:16;;;;;;;46.63;20.17;;;;;;;;;;5013948;28;20195;-47
2021/12/11 12:40:49;;;;;;;46.10;19.83;;;;;;;;;;5013788;28;20287;-49
2021/12/11 12:43:31;;;;;;;40.58;18.60;;;;;;;;;;5013604;28;20164;-48
2021/12/11 12:45:58;;;;;;;41.33;20.15;;;;;;;;;;5013466;28;20175;-47
2021/12/11 12:48:24;;;;;;;43.65;19.00;;;;;;;;;;5003762;28;20169;-47
2021/12/11 12:51:03;;;;;;;42.97;18.80;;;;;;;;;;4993430;28;20172;-48
2021/12/11 12:53:34;;;;;;;44.33;20.58;;;;;;;;;;4994445;28;20172;-49
2021/12/11 12:56:03;;;;;;;39.55;18.20;;;;;;;;;;4993853;28;20172;-48
2021/12/11 12:58:34;;;;;;;40.75;18.33;;;;;;;;;;4994593;28;20257;-48
2021/12/11 13:01:04;;;;;;;38.05;18.77;;;;;;;;;;4993828;28;20161;-48
2021/12/11 13:03:31;;;;;;;39.00;16.65;;;;;;;;;;4993887;28;20169;-49
2021/12/11 13:06:00;;;;;;;43.22;18.35;;;;;;;;;;4992716;28;20642;-50
2021/12/11 13:08:31;;;;;;;40.33;19.30;;;;;;;;;;4987139;28;20203;-49
2021/12/11 13:11:03;;;;;;;39.75;18.10;;;;;;;;;;4993936;28;20668;-48
2021/12/11 13:13:30;;;;;;;41.55;15.27;;;;;;;;;;4994192;28;20580;-48
2021/12/11 13:16:22;;;;;;;33.15;14.75;;;;;;;;;;4993950;28;20184;-48
2021/12/11 13:18:51;;;;;;;33.83;17.33;;;;;;;;;;4992890;28;20286;-49
2021/12/11 13:21:17;;;;;;;36.25;16.48;;;;;;;;;;4993619;28;20541;-48
2021/12/11 13:23:44;;;;;;;33.73;17.10;;;;;;;;;;4993890;28;20173;-50
2021/12/11 13:26:12;;;;;;;29.73;14.88;;;;;;;;;;4993590;28;20790;-48
2021/12/11 13:28:44;;;;;;;33.83;17.55;;;;;;;;;;4993977;28;20188;-48
2021/12/11 13:31:12;;;;;;;36.75;17.10;;;;;;;;;;4994547;28;20649;-50
2021/12/11 13:33:39;;;;;;;33.47;14.52;;;;;;;;;;4994151;28;20173;-51
2021/12/11 13:36:06;;;;;;;39.72;17.70;;;;;;;;;;4994382;28;20168;-50
2021/12/11 13:38:32;;;;;;;31.85;16.90;;;;;;;;;;4994003;28;20244;-50
2021/12/11 13:41:01;;;;;;;36.15;17.63;;;;;;;;;;4993026;28;20867;-50
2021/12/11 13:43:28;;;;;;;33.20;17.10;;;;;;;;;;4994050;28;20161;-51
2021/12/11 13:45:55;;;;;;;29.88;16.15;;;;;;;;;;4993205;28;20165;-49
2021/12/11 13:48:21;;;;;;;33.80;17.88;;;;;;;;;;4992150;28;20177;-50
2021/12/11 13:50:50;;;;;;;29.85;14.57;;;;;;;;;;4992887;28;20252;-49
2021/12/11 13:53:16;;;;;;;37.38;17.45;;;;;;;;;;4993463;28;20177;-50
2021/12/11 13:55:43;;;;;;;40.10;18.00;;;;;;;;;;4993900;28;20230;-50
2021/12/11 13:58:09;;;;;;;36.58;15.55;;;;;;;;;;4993752;28;20513;-50
2021/12/11 14:00:38;;;;;;;35.80;16.10;;;;;;;;;;4993039;28;20514;-50
2021/12/11 14:03:04;;;;;;;38.63;17.23;;;;;;;;;;4993803;28;20161;-49
2021/12/11 14:05:32;;;;;;;39.43;18.70;;;;;;;;;;4993785;28;20201;-51
2021/12/11 14:07:58;;;;;;;38.13;17.70;;;;;;;;;;4993649;28;20424;-50
2021/12/11 14:10:35;;;;;;;41.85;18.10;;;;;;;;;;4993704;28;20656;-50
2021/12/11 14:13:02;;;;;;;34.70;17.80;;;;;;;;;;4993902;28;20219;-51
2021/12/11 14:15:28;;;;;;;39.45;18.40;;;;;;;;;;4993397;28;20260;-50
2021/12/11 14:17:54;;;;;;;41.33;20.23;;;;;;;;;;4993640;28;20193;-50
2021/12/11 14:20:22;;;;;;;43.47;20.40;;;;;;;;;;4993201;28;20263;-50
2021/12/11 14:22:49;;;;;;;40.20;19.92;;;;;;;;;;4993639;28;20404;-50
2021/12/11 14:25:17;;;;;;;42.03;20.20;;;;;;;;;;4993608;28;20207;-50
2021/12/11 14:27:43;;;;;;;47.28;22.05;;;;;;;;;;4993426;28;20266;-50
2021/12/11 14:30:12;;;;;;;47.78;20.42;;;;;;;;;;4993403;28;20181;-48
2021/12/11 14:32:42;;;;;;;43.00;20.83;;;;;;;;;;4993328;28;20165;-49
2021/12/11 14:35:09;;;;;;;45.20;20.25;;;;;;;;;;4993499;28;20200;-49
2021/12/11 14:37:35;;;;;;;39.50;20.98;;;;;;;;;;4993572;28;20284;-51
2021/12/11 14:40:03;;;;;;;57.87;21.07;;;;;;;;;;4993198;28;20727;-50
2021/12/11 14:42:29;;;;;;;51.50;21.70;;;;;;;;;;4993590;28;20447;-49